createdAt,value
2019-05-22T00:02:01.394Z,8.03
2019-05-22T00:04:38.803Z,9.00
2019-05-22T00:07:12.551Z,6.20
2019-05-22T00:09:46.279Z,8.93
2019-05-22T00:12:19.474Z,7.70
2019-05-22T00:14:53.072Z,9.10
2019-05-22T00:17:28.925Z,9.80
2019-05-22T00:20:04.805Z,7.93
2019-05-22T00:22:37.368Z,6.87
2019-05-22T00:25:15.054Z,6.13
2019-05-22T00:27:51.303Z,10.23
2019-05-22T00:30:26.061Z,5.83
2019-05-22T00:33:00.440Z,8.30
2019-05-22T00:35:32.450Z,6.43
2019-05-22T00:38:07.406Z,6.63
2019-05-22T00:40:55.416Z,7.77
2019-05-22T00:43:34.333Z,6.40
2019-05-22T00:46:09.590Z,8.80
2019-05-22T00:48:42.224Z,7.40
2019-05-22T00:51:23.015Z,6.23
2019-05-22T00:54:12.663Z,8.87
2019-05-22T00:56:48.535Z,5.33
2019-05-22T00:59:22.548Z,10.90
2019-05-22T01:02:05.825Z,6.80
2019-05-22T01:04:42.519Z,9.03
2019-05-22T01:07:18.342Z,8.60
2019-05-22T01:09:52.444Z,9.70
2019-05-22T01:12:33.769Z,9.87
2019-05-22T01:15:08.373Z,4.80
2019-05-22T01:17:41.988Z,8.07
2019-05-22T01:20:16.266Z,10.77
2019-05-22T01:22:49.299Z,10.67
2019-05-22T01:25:24.849Z,9.80
2019-05-22T01:27:58.319Z,6.87
2019-05-22T01:30:41.845Z,7.77
2019-05-22T01:33:16.954Z,8.17
2019-05-22T01:35:53.612Z,8.10
2019-05-22T01:38:26.109Z,8.57
2019-05-22T01:41:02.537Z,9.67
2019-05-22T01:43:34.460Z,10.83
2019-05-22T01:46:06.945Z,8.80
2019-05-22T01:48:41.587Z,11.10
2019-05-22T01:51:14.882Z,11.23
2019-05-22T01:53:46.958Z,10.20
2019-05-22T01:56:20.166Z,8.13
2019-05-22T01:58:52.550Z,8.10
2019-05-22T02:01:26.246Z,12.27
2019-05-22T02:03:59.525Z,13.63
2019-05-22T02:06:31.353Z,15.47
2019-05-22T02:09:24.832Z,14.07
2019-05-22T02:12:08.017Z,18.07
2019-05-22T02:14:44.886Z,13.33
2019-05-22T02:17:19.575Z,26.67
2019-05-22T02:19:51.042Z,13.77
2019-05-22T02:22:23.674Z,16.33
2019-05-22T02:24:55.615Z,16.97
2019-05-22T02:27:28.453Z,19.03
2019-05-22T02:30:01.899Z,19.87
2019-05-22T02:32:38.126Z,24.13
2019-05-22T02:35:11.731Z,13.30
2019-05-22T02:37:43.575Z,15.73
2019-05-22T02:40:28.487Z,13.00
2019-05-22T02:43:00.234Z,20.93
2019-05-22T02:45:32.428Z,18.93
2019-05-22T02:48:08.745Z,11.20
2019-05-22T02:50:42.236Z,8.67
2019-05-22T02:53:17.362Z,13.03
2019-05-22T02:55:50.714Z,14.30
2019-05-22T02:58:23.525Z,15.90
2019-05-22T03:01:05.755Z,16.67
2019-05-22T03:03:37.955Z,19.23
2019-05-22T03:06:12.964Z,15.70
2019-05-22T03:09:08.811Z,16.43
2019-05-22T03:11:47.000Z,15.07
2019-05-22T03:14:20.469Z,15.17
2019-05-22T03:16:56.720Z,13.57
2019-05-22T03:19:43.074Z,13.80
2019-05-22T03:22:32.247Z,15.00
2019-05-22T03:25:08.546Z,13.87
2019-05-22T03:27:50.465Z,12.57
2019-05-22T03:30:34.891Z,16.43
2019-05-22T03:33:10.391Z,12.57
2019-05-22T03:35:52.189Z,15.07
2019-05-22T03:45:00.753Z,13.97
2019-05-22T03:47:33.717Z,14.13
2019-05-22T03:50:08.078Z,14.70
2019-05-22T03:52:39.716Z,14.63
2019-05-22T03:55:13.465Z,16.17
2019-05-22T03:57:45.863Z,16.33
2019-05-22T04:00:20.050Z,6.63
2019-05-22T04:02:55.247Z,15.23
2019-05-22T04:05:28.042Z,12.30
2019-05-22T04:08:00.592Z,15.20
2019-05-22T04:10:55.713Z,13.83
2019-05-22T04:13:29.876Z,11.43
2019-05-22T04:16:02.844Z,7.67
2019-05-22T04:18:36.036Z,13.40
2019-05-22T04:21:09.069Z,17.77
2019-05-22T04:23:41.910Z,14.73
2019-05-22T04:26:15.643Z,13.03
2019-05-22T04:28:53.351Z,11.53
2019-05-22T04:31:52.100Z,14.60
2019-05-22T04:34:25.639Z,16.80
2019-05-22T04:36:57.853Z,16.37
2019-05-22T04:39:32.728Z,13.10
2019-05-22T04:42:07.465Z,11.73
2019-05-22T04:44:42.688Z,14.60
2019-05-22T04:47:15.254Z,12.47
2019-05-22T04:50:04.479Z,17.90
2019-05-22T04:52:43.442Z,15.03
2019-05-22T04:55:17.476Z,13.90
2019-05-22T04:57:49.750Z,16.30
2019-05-22T05:00:22.862Z,14.83
2019-05-22T05:02:54.985Z,15.80
2019-05-22T05:05:29.482Z,18.53
2019-05-22T05:08:02.467Z,13.13
2019-05-22T05:10:34.705Z,12.40
2019-05-22T05:13:06.293Z,6.17
2019-05-22T05:15:37.908Z,14.20
2019-05-22T05:18:11.042Z,9.80
2019-05-22T05:20:42.706Z,13.37
2019-05-22T05:23:14.857Z,15.10
2019-05-22T05:25:46.416Z,13.50
2019-05-22T05:28:19.646Z,11.60
2019-05-22T05:30:52.604Z,15.47
2019-05-22T05:33:26.137Z,9.07
2019-05-22T05:35:58.766Z,14.93
2019-05-22T05:38:36.215Z,7.83
2019-05-22T05:41:08.244Z,10.70
2019-05-22T05:43:40.199Z,13.80
2019-05-22T05:46:11.927Z,10.43
2019-05-22T05:48:44.490Z,9.27
2019-05-22T05:51:20.819Z,8.27
2019-05-22T05:54:06.311Z,7.17
2019-05-22T05:56:42.177Z,9.27
2019-05-22T05:59:18.143Z,7.10
2019-05-22T06:01:52.392Z,8.50
2019-05-22T06:04:34.633Z,6.37
2019-05-22T06:07:19.948Z,7.63
2019-05-22T06:09:55.923Z,7.83
2019-05-22T06:12:28.106Z,5.60
2019-05-22T06:14:59.643Z,4.13
2019-05-22T06:18:10.750Z,5.70
2019-05-22T06:20:43.906Z,4.63
2019-05-22T06:23:30.471Z,7.97
2019-05-22T06:26:05.589Z,5.67
2019-05-22T06:28:42.474Z,6.50
2019-05-22T06:31:42.598Z,5.87
2019-05-22T06:34:14.578Z,7.70
2019-05-22T06:36:45.912Z,7.20
2019-05-22T06:39:17.770Z,3.90
2019-05-22T06:41:52.384Z,4.10
2019-05-22T06:44:33.837Z,5.00
2019-05-22T06:47:07.133Z,7.00
2019-05-22T06:49:42.104Z,7.67
2019-05-22T06:52:14.759Z,5.23
2019-05-22T06:54:46.805Z,4.27
2019-05-22T06:57:19.962Z,7.23
2019-05-22T07:00:11.363Z,3.73
2019-05-22T07:02:28.235Z,7.50
2019-05-22T07:04:59.515Z,3.43
2019-05-22T07:07:31.280Z,4.53
2019-05-22T07:10:03.201Z,5.73
2019-05-22T07:12:40.146Z,6.47
2019-05-22T07:15:22.456Z,6.97
2019-05-22T07:17:55.335Z,16.50
2019-05-22T07:20:29.612Z,4.63
2019-05-22T07:23:03.942Z,5.10
2019-05-22T07:25:39.847Z,7.50
2019-05-22T07:28:13.749Z,6.23
2019-05-22T07:30:48.855Z,13.97
2019-05-22T07:33:25.904Z,4.73
2019-05-22T07:36:10.124Z,5.80
2019-05-22T07:38:38.860Z,15.87
2019-05-22T07:41:11.906Z,4.63
2019-05-22T07:43:46.755Z,7.80
2019-05-22T07:46:30.948Z,5.93
2019-05-22T07:49:04.384Z,4.30
2019-05-22T07:51:53.166Z,6.70
2019-05-22T07:54:11.835Z,5.43
2019-05-22T07:56:45.934Z,6.93
2019-05-22T07:59:18.519Z,7.47
2019-05-22T08:01:53.098Z,7.10
2019-05-22T08:04:26.431Z,5.10
2019-05-22T08:06:58.575Z,6.27
2019-05-22T08:09:36.099Z,4.67
2019-05-22T08:12:14.174Z,6.00
2019-05-22T08:14:46.515Z,5.83
2019-05-22T08:17:21.106Z,8.07
2019-05-22T08:19:52.874Z,7.37
2019-05-22T08:22:26.573Z,6.37
2019-05-22T08:24:58.305Z,6.10
2019-05-22T08:27:30.203Z,6.33
2019-05-22T08:30:01.910Z,5.30
2019-05-22T08:32:34.797Z,5.93
2019-05-22T08:35:11.023Z,5.00
2019-05-22T08:37:42.603Z,6.17
2019-05-22T08:40:17.946Z,5.67
2019-05-22T08:42:49.905Z,5.03
2019-05-22T08:45:22.772Z,8.97
2019-05-22T08:47:54.478Z,6.47
2019-05-22T08:50:27.624Z,4.83
2019-05-22T08:52:59.810Z,6.67
2019-05-22T08:55:37.948Z,4.43
2019-05-22T08:58:10.930Z,5.57
2019-05-22T09:00:43.288Z,9.73
2019-05-22T09:03:15.818Z,7.70
2019-05-22T09:05:47.412Z,6.03
2019-05-22T09:08:19.459Z,11.20
2019-05-22T09:10:50.995Z,5.23
2019-05-22T09:13:22.546Z,6.03
2019-05-22T09:15:54.039Z,7.33
2019-05-22T09:18:26.248Z,5.90
2019-05-22T09:20:59.022Z,7.20
2019-05-22T09:23:33.190Z,5.13
2019-05-22T09:26:06.047Z,6.17
2019-05-22T09:28:38.728Z,8.57
2019-05-22T09:31:10.227Z,10.00
2019-05-22T09:33:42.992Z,5.67
2019-05-22T09:36:17.357Z,6.57
2019-05-22T09:38:52.212Z,7.97
2019-05-22T09:41:31.007Z,6.03
2019-05-22T09:44:14.738Z,5.73
2019-05-22T09:46:45.688Z,6.20
2019-05-22T09:49:23.618Z,5.10
2019-05-22T09:51:54.985Z,10.33
2019-05-22T09:54:28.595Z,7.73
2019-05-22T09:57:02.331Z,8.90
2019-05-22T09:59:34.502Z,6.57
2019-05-22T10:02:07.983Z,8.57
2019-05-22T10:04:39.614Z,8.37
2019-05-22T10:07:12.459Z,5.23
2019-05-22T10:09:44.576Z,6.93
2019-05-22T10:12:15.974Z,7.80
2019-05-22T10:14:47.430Z,5.93
2019-05-22T10:17:19.151Z,9.77
2019-05-22T10:19:50.898Z,6.37
2019-05-22T10:22:24.155Z,6.20
2019-05-22T10:25:14.082Z,7.27
2019-05-22T10:27:29.743Z,6.17
2019-05-22T10:30:01.949Z,6.00
2019-05-22T10:32:33.905Z,8.83
2019-05-22T10:35:08.730Z,6.33
2019-05-22T10:37:41.331Z,6.13
2019-05-22T10:40:15.211Z,5.90
2019-05-22T10:42:46.815Z,9.37
2019-05-22T10:45:18.351Z,6.47
2019-05-22T10:47:50.785Z,4.63
2019-05-22T10:50:22.443Z,8.03
2019-05-22T10:52:55.181Z,6.47
2019-05-22T10:55:27.362Z,5.17
2019-05-22T10:57:58.871Z,4.93
2019-05-22T11:00:31.668Z,5.47
2019-05-22T11:03:04.392Z,6.27
2019-05-22T11:05:37.870Z,7.10
2019-05-22T11:08:11.039Z,6.67
2019-05-22T11:10:45.251Z,4.73
2019-05-22T11:13:18.513Z,5.60
2019-05-22T11:15:52.497Z,4.37
2019-05-22T11:18:24.404Z,5.20
2019-05-22T11:21:02.706Z,5.13
2019-05-22T11:23:50.576Z,6.00
2019-05-22T11:26:09.203Z,5.30
2019-05-22T11:28:50.958Z,5.03
2019-05-22T11:31:27.267Z,5.77
2019-05-22T11:34:00.043Z,4.17
2019-05-22T11:36:33.107Z,7.23
2019-05-22T11:39:08.098Z,4.10
2019-05-22T11:41:46.354Z,6.17
2019-05-22T11:44:24.286Z,7.83
2019-05-22T11:46:56.607Z,3.17
2019-05-22T11:49:32.095Z,4.50
2019-05-22T11:52:08.865Z,4.60
2019-05-22T11:54:44.923Z,5.03
2019-05-22T11:57:19.382Z,3.73
2019-05-22T12:00:08.599Z,4.07
2019-05-22T12:02:38.091Z,4.07
2019-05-22T12:05:12.085Z,5.10
2019-05-22T12:07:45.372Z,3.90
2019-05-22T12:10:21.252Z,4.43
2019-05-22T12:12:55.406Z,6.63
2019-05-22T12:15:32.696Z,5.53
2019-05-22T12:18:07.291Z,3.90
2019-05-22T12:20:40.477Z,4.53
2019-05-22T12:23:13.553Z,4.90
2019-05-22T12:25:46.285Z,6.27
2019-05-22T12:28:19.180Z,5.40
2019-05-22T12:30:51.475Z,5.03
2019-05-22T12:33:23.639Z,2.83
2019-05-22T12:35:54.950Z,3.87
2019-05-22T12:38:27.574Z,3.97
2019-05-22T12:40:59.424Z,4.70
2019-05-22T12:43:32.019Z,6.00
2019-05-22T12:46:04.505Z,3.93
2019-05-22T12:48:38.810Z,5.30
2019-05-22T12:51:10.889Z,5.13
2019-05-22T12:53:45.251Z,2.87
2019-05-22T12:56:19.705Z,5.73
2019-05-22T12:58:54.566Z,2.67
2019-05-22T13:01:29.608Z,2.77
2019-05-22T13:04:02.888Z,2.77
2019-05-22T13:06:35.634Z,2.60
2019-05-22T13:09:13.153Z,2.97
2019-05-22T13:11:46.488Z,3.93
2019-05-22T13:14:19.582Z,4.30
2019-05-22T13:16:51.547Z,6.77
2019-05-22T13:19:24.689Z,6.07
2019-05-22T13:21:58.350Z,4.77
2019-05-22T13:27:22.863Z,4.73
2019-05-22T13:29:56.166Z,5.10
2019-05-22T13:32:29.260Z,4.07
2019-05-22T13:35:02.297Z,5.87
2019-05-22T13:37:33.800Z,3.03
2019-05-22T13:40:26.137Z,6.03
2019-05-22T13:42:43.026Z,3.20
2019-05-22T13:45:28.807Z,2.67
2019-05-22T13:47:50.967Z,4.20
2019-05-22T13:50:28.678Z,4.80
2019-05-22T13:53:03.257Z,5.57
2019-05-22T13:55:35.737Z,2.97
2019-05-22T13:58:10.110Z,3.47
2019-05-22T14:00:44.194Z,5.40
2019-05-22T14:03:16.077Z,5.50
2019-05-22T14:05:47.582Z,5.03
2019-05-22T14:08:19.617Z,4.40
2019-05-22T14:10:53.143Z,2.27
2019-05-22T14:13:27.242Z,3.93
2019-05-22T14:15:58.683Z,3.67
2019-05-22T14:18:31.536Z,4.87
2019-05-22T14:21:03.181Z,3.77
2019-05-22T14:23:34.584Z,4.73
2019-05-22T14:26:07.524Z,3.53
2019-05-22T14:28:39.644Z,5.90
2019-05-22T14:31:10.940Z,5.67
2019-05-22T14:33:42.848Z,3.87
2019-05-22T14:36:19.474Z,3.73
2019-05-22T14:38:55.805Z,3.50
2019-05-22T14:41:27.054Z,5.10
2019-05-22T14:43:58.651Z,3.87
2019-05-22T14:46:29.923Z,4.00
2019-05-22T14:49:01.257Z,4.13
2019-05-22T14:51:33.361Z,3.30
2019-05-22T14:54:07.257Z,3.60
2019-05-22T14:56:39.270Z,4.53
2019-05-22T14:59:12.129Z,3.30
2019-05-22T15:01:43.627Z,3.90
2019-05-22T15:04:15.376Z,5.43
2019-05-22T15:06:47.236Z,4.43
2019-05-22T15:09:18.704Z,5.67
2019-05-22T15:11:50.807Z,4.37
2019-05-22T15:14:23.306Z,3.63
2019-05-22T15:16:54.606Z,4.80
2019-05-22T15:19:26.412Z,4.43
2019-05-22T15:21:58.003Z,7.10
2019-05-22T15:24:30.955Z,10.23
2019-05-22T15:27:05.057Z,9.67
2019-05-22T15:29:36.651Z,5.87
2019-05-22T15:32:09.421Z,11.50
2019-05-22T15:34:41.441Z,9.37
2019-05-22T15:37:15.368Z,7.27
2019-05-22T15:39:47.531Z,7.07
2019-05-22T15:42:43.288Z,6.70
2019-05-22T15:45:31.983Z,7.17
2019-05-22T15:48:05.433Z,6.13
2019-05-22T15:50:37.605Z,5.20
2019-05-22T15:53:14.939Z,4.43
2019-05-22T15:55:47.803Z,5.67
2019-05-22T15:58:20.756Z,7.20
2019-05-22T16:00:55.306Z,6.03
2019-05-22T16:03:29.167Z,7.37
2019-05-22T16:06:01.874Z,10.20
2019-05-22T16:08:34.281Z,8.67
2019-05-22T16:11:11.244Z,9.10
2019-05-22T16:13:43.812Z,7.17
2019-05-22T16:16:17.429Z,6.73
2019-05-22T16:18:54.082Z,6.77
2019-05-22T16:21:27.664Z,5.97
2019-05-22T16:24:00.015Z,8.03
2019-05-22T16:26:32.646Z,7.87
2019-05-22T16:29:04.832Z,11.77
2019-05-22T16:31:39.630Z,10.57
2019-05-22T16:34:12.762Z,13.08
2019-05-22T16:36:46.983Z,6.67
2019-05-22T16:39:20.629Z,5.53
2019-05-22T16:41:52.542Z,6.90
2019-05-22T16:44:24.596Z,5.70
2019-05-22T16:46:58.156Z,7.73
2019-05-22T16:49:30.026Z,6.17
2019-05-22T16:52:04.145Z,5.80
2019-05-22T16:54:36.103Z,7.63
2019-05-22T16:57:08.752Z,7.47
2019-05-22T16:59:42.044Z,7.43
2019-05-22T17:02:17.240Z,8.60
2019-05-22T17:04:50.479Z,9.73
2019-05-22T17:07:21.986Z,14.50
2019-05-22T17:09:55.340Z,8.97
2019-05-22T17:12:29.830Z,6.90
2019-05-22T17:15:02.433Z,6.27
2019-05-22T17:17:34.872Z,6.47
2019-05-22T17:20:10.442Z,9.03
2019-05-22T17:22:42.173Z,9.80
2019-05-22T17:25:15.909Z,11.10
2019-05-22T17:27:47.400Z,10.00
2019-05-22T17:30:21.627Z,12.03
2019-05-22T17:32:55.983Z,27.30
2019-05-22T17:35:33.046Z,10.00
2019-05-22T17:38:07.280Z,11.57
2019-05-22T17:40:40.606Z,10.73
2019-05-22T17:43:15.131Z,8.03
2019-05-22T17:45:48.091Z,6.50
2019-05-22T17:48:22.057Z,6.10
2019-05-22T17:50:55.461Z,5.53
2019-05-22T17:53:28.380Z,6.67
2019-05-22T17:55:59.979Z,5.60
2019-05-22T17:58:31.934Z,7.23
2019-05-22T18:01:05.119Z,6.93
2019-05-22T18:03:37.445Z,6.50
2019-05-22T18:06:09.920Z,6.57
2019-05-22T18:08:41.762Z,4.80
2019-05-22T18:11:13.092Z,4.50
2019-05-22T18:13:59.619Z,5.27
2019-05-22T18:16:32.984Z,12.83
2019-05-22T18:19:05.699Z,5.17
2019-05-22T18:21:38.725Z,4.80
2019-05-22T18:24:09.780Z,5.60
2019-05-22T18:26:46.043Z,6.07
2019-05-22T18:29:23.426Z,3.73
2019-05-22T18:31:57.912Z,3.67
2019-05-22T18:34:29.415Z,7.10
2019-05-22T18:37:02.970Z,8.63
2019-05-22T18:39:39.843Z,5.30
2019-05-22T18:42:14.486Z,4.43
2019-05-22T18:44:49.144Z,4.57
2019-05-22T18:47:22.661Z,4.77
2019-05-22T18:49:55.412Z,7.17
2019-05-22T18:52:41.081Z,12.60
2019-05-22T18:55:11.120Z,16.83
2019-05-22T18:57:43.394Z,7.20
2019-05-22T19:00:25.489Z,9.60
2019-05-22T19:11:46.036Z,7.10
2019-05-22T19:14:20.201Z,10.67
2019-05-22T19:16:52.071Z,11.97
2019-05-22T19:19:23.551Z,9.77
2019-05-22T19:21:55.488Z,7.73
2019-05-22T19:24:28.375Z,8.37
2019-05-22T19:27:01.150Z,8.23
2019-05-22T19:29:34.453Z,6.53
2019-05-22T19:32:08.406Z,6.97
2019-05-22T19:34:43.687Z,9.97
2019-05-22T19:37:15.418Z,9.73
2019-05-22T19:39:50.112Z,9.73
2019-05-22T19:42:23.122Z,12.67
2019-05-22T19:44:57.194Z,9.63
2019-05-22T19:51:07.167Z,8.30
2019-05-22T19:53:41.525Z,10.90
2019-05-22T19:56:15.164Z,9.90
2019-05-22T19:58:47.319Z,6.87
2019-05-22T20:01:33.807Z,8.27
2019-05-22T20:04:11.968Z,6.80
2019-05-22T20:06:46.099Z,9.63
2019-05-22T20:09:20.371Z,9.67
2019-05-22T20:11:53.866Z,8.23
2019-05-22T20:14:26.222Z,9.13
2019-05-22T20:16:58.479Z,8.47
2019-05-22T20:19:30.645Z,7.17
2019-05-22T20:22:02.522Z,7.90
2019-05-22T20:24:34.895Z,8.83
2019-05-22T20:27:09.911Z,10.07
2019-05-22T20:29:42.280Z,9.63
2019-05-22T20:32:15.781Z,13.47
2019-05-22T20:34:48.794Z,11.80
2019-05-22T20:37:23.086Z,7.03
2019-05-22T20:39:56.329Z,6.90
2019-05-22T20:42:30.115Z,13.20
2019-05-22T20:45:02.154Z,9.57
2019-05-22T20:47:34.458Z,8.50
2019-05-22T20:50:09.475Z,7.30
2019-05-22T20:52:42.757Z,8.13
2019-05-22T20:55:16.341Z,12.33
2019-05-22T20:57:48.795Z,7.53
2019-05-22T21:00:23.622Z,10.30
2019-05-22T21:03:06.849Z,10.83
2019-05-22T21:05:39.465Z,8.70
2019-05-22T21:08:13.822Z,9.27
2019-05-22T21:10:48.169Z,8.57
2019-05-22T21:13:21.497Z,8.23
2019-05-22T21:15:54.641Z,8.20
2019-05-22T21:18:31.430Z,6.27
2019-05-22T21:21:03.443Z,7.53
2019-05-22T21:23:36.463Z,7.13
2019-05-22T21:26:10.169Z,5.17
2019-05-22T21:28:43.464Z,7.73
2019-05-22T21:31:16.514Z,9.00
2019-05-22T21:33:49.086Z,4.67
2019-05-22T21:36:21.175Z,10.60
2019-05-22T21:38:52.758Z,7.87
2019-05-22T21:41:28.427Z,9.33
2019-05-22T21:44:02.583Z,9.83
2019-05-22T21:46:35.402Z,9.50
2019-05-22T21:49:09.713Z,14.43
2019-05-22T21:51:44.442Z,16.07
2019-05-22T21:54:17.467Z,10.80
2019-05-22T21:56:51.651Z,14.67
2019-05-22T21:59:24.190Z,16.10
2019-05-22T22:02:03.983Z,13.40
2019-05-22T22:04:37.801Z,14.20
2019-05-22T22:07:11.309Z,13.43
2019-05-22T22:09:45.208Z,13.10
2019-05-22T22:12:21.141Z,14.73
2019-05-22T22:14:54.292Z,17.73
2019-05-22T22:17:27.980Z,20.93
2019-05-22T22:20:03.780Z,15.03
2019-05-22T22:22:36.327Z,17.17
2019-05-22T22:25:15.051Z,21.40
2019-05-22T22:27:47.389Z,15.23
2019-05-22T22:30:30.578Z,16.47
2019-05-22T22:33:11.862Z,20.97
2019-05-22T22:35:44.648Z,16.33
2019-05-22T22:38:20.144Z,15.73
2019-05-22T22:40:54.176Z,17.90
2019-05-22T22:43:30.792Z,15.87
2019-05-22T22:46:09.477Z,15.07
2019-05-22T22:48:42.264Z,16.87
2019-05-22T22:51:16.867Z,17.07
2019-05-22T22:53:49.622Z,19.70
2019-05-22T22:56:43.963Z,19.10
2019-05-22T22:59:17.487Z,17.13
2019-05-22T23:01:53.169Z,17.87
2019-05-22T23:04:27.428Z,16.20
2019-05-22T23:07:05.144Z,19.67
2019-05-22T23:09:40.750Z,15.70
2019-05-22T23:12:14.675Z,17.23
2019-05-22T23:14:53.244Z,20.47
2019-05-22T23:17:28.528Z,19.93
2019-05-22T23:19:58.790Z,16.93
2019-05-22T23:22:29.511Z,17.80
2019-05-22T23:25:00.832Z,17.73
2019-05-22T23:27:33.449Z,17.27
2019-05-22T23:30:09.235Z,16.03
2019-05-22T23:32:42.833Z,16.43
2019-05-22T23:35:16.039Z,17.33
2019-05-22T23:37:47.709Z,17.70
2019-05-22T23:40:27.082Z,19.40
2019-05-22T23:43:02.296Z,15.93
2019-05-22T23:45:35.244Z,16.10
2019-05-22T23:48:12.582Z,20.90
2019-05-22T23:50:47.475Z,19.03
2019-05-22T23:53:23.816Z,19.60
2019-05-22T23:55:59.029Z,16.40
2019-05-22T23:58:32.342Z,23.77
